Time;durP1;ratioP1;P1;durP2;ratioP2;P2;SDS_P1;SDS_P2;PMS_P1;PMS_P2;Temp;Humidity;BMP_temperature;BMP_pressure;BME280_temperature;BME280_humidity;BME280_pressure;Samples;Min_cycle;Max_cycle;Signal;HPM_P1;HPM_P2
2020/12/06 00:00:54;;;;;;;17.23;11.27;;;5.80;99.90;;;;;;4954699;28;20539;-76
2020/12/06 00:03:20;;;;;;;16.90;11.87;;;5.90;99.90;;;;;;4954820;28;20190;-75
2020/12/06 00:05:46;;;;;;;16.60;11.97;;;5.90;99.90;;;;;;4954667;28;20186;-75
2020/12/06 00:08:12;;;;;;;20.40;11.70;;;5.80;99.90;;;;;;4954479;28;20229;-75
2020/12/06 00:10:37;;;;;;;17.10;12.30;;;5.80;99.90;;;;;;4954554;29;20988;-75
2020/12/06 00:13:03;;;;;;;13.80;11.13;;;5.80;99.90;;;;;;4954510;28;20174;-75
2020/12/06 00:15:28;;;;;;;17.80;11.27;;;5.70;99.90;;;;;;4954501;28;20188;-75
2020/12/06 00:17:54;;;;;;;17.93;12.37;;;5.70;99.90;;;;;;4954518;29;20579;-75
2020/12/06 00:20:19;;;;;;;18.03;12.60;;;5.70;99.90;;;;;;4954483;29;20181;-75
2020/12/06 00:22:45;;;;;;;15.93;11.33;;;5.70;99.90;;;;;;4954498;28;20187;-75
2020/12/06 00:25:11;;;;;;;15.97;12.10;;;5.70;99.90;;;;;;4954416;29;20194;-75
2020/12/06 00:27:37;;;;;;;17.40;12.30;;;5.70;99.90;;;;;;4954406;29;20830;-75
2020/12/06 00:30:08;;;;;;;17.30;11.70;;;5.60;99.90;;;;;;4954268;28;20221;-75
2020/12/06 00:32:34;;;;;;;16.63;12.47;;;5.60;99.90;;;;;;4954372;29;20181;-75
2020/12/06 00:34:59;;;;;;;16.83;12.50;;;5.60;99.90;;;;;;4954117;28;20491;-82
2020/12/06 00:37:25;;;;;;;15.53;10.43;;;5.50;99.90;;;;;;4954336;28;20181;-78
2020/12/06 00:39:51;;;;;;;21.40;13.17;;;5.50;99.90;;;;;;4954135;28;20604;-75
2020/12/06 00:42:16;;;;;;;18.27;13.43;;;5.50;99.90;;;;;;4954123;28;20178;-75
2020/12/06 00:44:42;;;;;;;17.87;12.10;;;5.50;99.90;;;;;;4952914;29;20190;-75
2020/12/06 00:47:07;;;;;;;16.90;12.07;;;5.40;99.90;;;;;;4953944;28;20186;-78
2020/12/06 00:49:33;;;;;;;15.97;11.97;;;5.40;99.90;;;;;;4954217;28;20267;-78
2020/12/06 00:51:58;;;;;;;20.00;11.90;;;5.40;99.90;;;;;;4954246;28;20212;-78
2020/12/06 00:54:24;;;;;;;23.37;12.77;;;5.30;99.90;;;;;;4954205;28;20183;-78
2020/12/06 00:56:57;;;;;;;18.23;12.30;;;5.30;99.90;;;;;;4954020;28;20173;-78
2020/12/06 00:59:23;;;;;;;23.50;13.87;;;5.30;99.90;;;;;;4954215;28;20434;-77
2020/12/06 01:01:49;;;;;;;23.90;15.63;;;5.30;99.90;;;;;;4953527;28;20822;-73
2020/12/06 01:04:14;;;;;;;20.60;14.50;;;5.40;99.90;;;;;;4954093;28;20519;-74
2020/12/06 01:06:40;;;;;;;20.50;14.83;;;5.40;99.90;;;;;;4953448;28;20222;-74
2020/12/06 01:09:05;;;;;;;25.53;16.20;;;5.50;99.90;;;;;;4954352;28;20292;-74
2020/12/06 01:11:31;;;;;;;17.73;13.50;;;5.40;99.90;;;;;;4954420;28;20216;-74
2020/12/06 01:13:57;;;;;;;21.43;15.40;;;5.40;99.90;;;;;;4954444;28;20657;-73
2020/12/06 01:16:23;;;;;;;23.40;14.97;;;5.30;99.90;;;;;;4954714;28;20653;-74
2020/12/06 01:18:48;;;;;;;23.70;15.47;;;5.30;99.90;;;;;;4954733;28;20437;-74
2020/12/06 01:21:14;;;;;;;24.13;14.87;;;5.30;99.90;;;;;;4954709;29;20174;-74
2020/12/06 01:23:39;;;;;;;22.93;15.23;;;5.30;99.90;;;;;;4954684;28;20463;-74
2020/12/06 01:26:05;;;;;;;21.30;14.60;;;5.30;99.90;;;;;;4954625;29;20213;-74
2020/12/06 01:28:31;;;;;;;22.73;14.50;;;5.30;99.90;;;;;;4954698;29;20181;-74
2020/12/06 01:30:56;;;;;;;21.60;14.53;;;5.30;99.90;;;;;;4954664;29;20223;-74
2020/12/06 01:33:22;;;;;;;21.60;14.70;;;5.30;99.90;;;;;;4954770;28;20446;-74
2020/12/06 01:35:47;;;;;;;25.93;15.80;;;5.30;99.90;;;;;;4954593;28;20185;-74
2020/12/06 01:38:13;;;;;;;23.30;14.80;;;5.30;99.90;;;;;;4954665;28;20176;-74
2020/12/06 01:40:40;;;;;;;25.17;16.10;;;5.30;99.90;;;;;;4954516;29;20181;-74
2020/12/06 01:43:07;;;;;;;26.40;18.30;;;5.30;99.90;;;;;;4954701;28;20179;-74
2020/12/06 01:45:32;;;;;;;25.73;16.13;;;5.30;99.90;;;;;;4954466;28;20463;-74
2020/12/06 01:47:58;;;;;;;23.10;16.10;;;5.30;99.90;;;;;;4954501;29;20418;-74
2020/12/06 01:50:23;;;;;;;23.87;16.07;;;5.30;99.90;;;;;;4954503;28;20220;-77
2020/12/06 01:52:49;;;;;;;21.43;15.10;;;5.40;99.90;;;;;;4954447;28;20175;-76
2020/12/06 01:55:14;;;;;;;26.00;17.10;;;5.40;99.90;;;;;;4957903;29;20254;-77
2020/12/06 01:57:40;;;;;;;24.10;15.40;;;5.40;99.90;;;;;;4957892;28;20264;-78
2020/12/06 02:00:07;;;;;;;24.97;17.00;;;5.20;99.90;;;;;;4957735;29;20181;-78
2020/12/06 02:02:34;;;;;;;27.00;16.37;;;5.20;99.90;;;;;;4957624;28;20177;-78
2020/12/06 02:04:59;;;;;;;27.10;14.70;;;5.10;99.90;;;;;;4957662;28;20433;-78
2020/12/06 02:07:28;;;;;;;23.83;15.57;;;5.00;99.90;;;;;;4957550;28;20428;-72
2020/12/06 02:09:53;;;;;;;21.80;16.00;;;5.00;99.90;;;;;;4957475;29;20707;-73
2020/12/06 02:12:19;;;;;;;22.07;15.63;;;5.00;99.90;;;;;;4957653;29;20434;-73
2020/12/06 02:14:44;;;;;;;20.57;13.40;;;5.00;99.90;;;;;;4957529;28;20646;-73
2020/12/06 02:17:10;;;;;;;23.27;13.93;;;5.10;99.90;;;;;;4957684;28;20265;-73
2020/12/06 02:19:36;;;;;;;21.77;14.20;;;5.10;99.90;;;;;;4957447;28;20188;-72
2020/12/06 02:22:01;;;;;;;18.93;14.10;;;5.00;99.90;;;;;;4957435;28;20208;-76
2020/12/06 02:24:27;;;;;;;22.13;14.40;;;5.00;99.90;;;;;;4957406;28;20176;-75
2020/12/06 02:26:53;;;;;;;20.33;12.97;;;5.00;99.90;;;;;;4957334;29;20487;-74
2020/12/06 02:29:19;;;;;;;22.53;15.43;;;5.00;99.90;;;;;;4958391;29;20544;-73
2020/12/06 02:31:45;;;;;;;22.60;14.00;;;5.00;99.90;;;;;;4957230;28;20561;-74
2020/12/06 02:34:11;;;;;;;20.27;13.93;;;5.00;99.90;;;;;;4957230;28;20433;-74
2020/12/06 02:36:37;;;;;;;22.80;15.70;;;5.00;99.90;;;;;;4957060;29;20216;-79
2020/12/06 02:39:06;;;;;;;24.57;15.47;;;5.00;99.90;;;;;;4957280;28;20284;-77
2020/12/06 02:41:39;;;;;;;23.97;14.93;;;4.90;99.90;;;;;;4956999;29;20437;-76
2020/12/06 02:44:06;;;;;;;27.23;17.40;;;5.00;99.90;;;;;;4957094;28;20783;-76
2020/12/06 02:46:32;;;;;;;26.60;16.40;;;4.90;99.90;;;;;;4956943;29;20436;-76
2020/12/06 02:48:58;;;;;;;22.70;16.13;;;5.00;99.90;;;;;;4956886;28;20425;-75
2020/12/06 02:51:24;;;;;;;31.37;17.43;;;5.00;99.90;;;;;;4956833;29;20525;-75
2020/12/06 02:53:50;;;;;;;27.87;16.50;;;5.00;99.90;;;;;;4956707;28;20668;-74
2020/12/06 02:56:16;;;;;;;22.70;16.07;;;5.00;99.90;;;;;;4956793;29;20455;-74
2020/12/06 02:58:41;;;;;;;22.50;16.03;;;5.00;99.90;;;;;;4956628;28;20649;-74
2020/12/06 03:01:07;;;;;;;26.97;16.23;;;5.00;99.90;;;;;;4956639;28;20437;-73
2020/12/06 03:03:32;;;;;;;30.00;16.07;;;5.00;99.90;;;;;;4956876;29;20276;-73
2020/12/06 03:05:58;;;;;;;28.60;18.90;;;5.00;99.90;;;;;;4956593;28;20208;-74
2020/12/06 03:08:23;;;;;;;26.83;16.90;;;5.00;99.90;;;;;;4956382;28;20654;-78
2020/12/06 03:10:49;;;;;;;21.03;15.33;;;5.00;99.90;;;;;;4956486;28;20699;-78
2020/12/06 03:13:15;;;;;;;23.83;16.30;;;5.00;99.90;;;;;;4956463;29;20673;-78
2020/12/06 03:15:40;;;;;;;25.20;15.40;;;5.00;99.90;;;;;;4956397;28;20261;-78
2020/12/06 03:18:06;;;;;;;24.27;15.53;;;5.10;99.90;;;;;;4956401;29;20178;-78
2020/12/06 03:20:31;;;;;;;31.53;16.37;;;5.00;99.90;;;;;;4956322;28;20182;-78
2020/12/06 03:22:59;;;;;;;25.63;15.93;;;5.10;99.90;;;;;;4956225;28;20174;-78
2020/12/06 03:25:25;;;;;;;27.60;15.87;;;5.10;99.90;;;;;;4956175;29;20653;-79
2020/12/06 03:27:50;;;;;;;24.10;15.60;;;5.10;99.90;;;;;;4956143;28;20763;-79
2020/12/06 03:30:16;;;;;;;22.13;13.67;;;5.10;99.90;;;;;;4956092;29;20467;-79
2020/12/06 03:32:42;;;;;;;25.47;16.07;;;5.10;99.90;;;;;;4955944;29;20178;-79
2020/12/06 03:35:08;;;;;;;23.60;15.30;;;5.10;99.90;;;;;;4956150;28;20428;-79
2020/12/06 03:37:33;;;;;;;21.40;14.60;;;5.10;99.90;;;;;;4955905;28;20186;-82
2020/12/06 03:39:59;;;;;;;25.70;15.33;;;5.10;99.90;;;;;;4956122;28;20651;-82
2020/12/06 03:42:24;;;;;;;23.57;15.70;;;5.10;99.90;;;;;;4955943;28;20545;-76
2020/12/06 03:44:50;;;;;;;19.80;14.97;;;5.10;99.90;;;;;;4955843;29;20180;-76
2020/12/06 03:47:17;;;;;;;22.43;16.10;;;5.10;99.90;;;;;;4955930;28;20192;-76
2020/12/06 03:49:43;;;;;;;26.13;16.37;;;5.10;99.90;;;;;;4955644;28;20209;-76
2020/12/06 03:52:09;;;;;;;24.27;13.80;;;5.20;99.90;;;;;;4955870;28;20437;-75
2020/12/06 03:54:34;;;;;;;21.50;15.47;;;5.10;99.90;;;;;;4955648;29;20513;-79
2020/12/06 03:57:00;;;;;;;23.50;15.47;;;5.20;99.90;;;;;;4955855;29;20188;-78
2020/12/06 03:59:25;;;;;;;21.53;14.73;;;5.20;99.90;;;;;;4955734;28;20690;-79
2020/12/06 04:01:51;;;;;;;22.97;15.90;;;5.10;99.90;;;;;;4955574;29;20200;-78
2020/12/06 04:04:16;;;;;;;22.90;15.17;;;5.20;99.90;;;;;;4955641;28;20173;-78
2020/12/06 04:06:42;;;;;;;21.40;14.33;;;5.20;99.90;;;;;;4955434;28;20182;-78
2020/12/06 04:09:07;;;;;;;21.93;15.50;;;5.20;99.90;;;;;;4955378;28;20359;-78
2020/12/06 04:11:33;;;;;;;23.03;15.10;;;5.20;99.90;;;;;;4955379;29;20218;-75
2020/12/06 04:13:58;;;;;;;20.40;14.70;;;5.30;99.90;;;;;;4955363;28;20185;-75
2020/12/06 04:16:24;;;;;;;18.57;14.53;;;5.30;99.90;;;;;;4954988;28;20175;-78
2020/12/06 04:18:49;;;;;;;18.00;14.00;;;5.30;99.90;;;;;;4955301;29;20270;-75
2020/12/06 04:21:15;;;;;;;19.43;14.90;;;5.30;99.90;;;;;;4955404;29;20232;-75
2020/12/06 04:23:41;;;;;;;24.60;14.77;;;5.30;99.90;;;;;;4955330;28;20656;-75
2020/12/06 04:26:06;;;;;;;20.10;14.00;;;5.40;99.90;;;;;;4955273;29;20185;-73
2020/12/06 04:28:32;;;;;;;23.40;15.20;;;5.40;99.90;;;;;;4955261;28;20654;-73
2020/12/06 06:32:29;;;;;;;28.50;19.10;;;5.90;99.90;;;;;;6092971;23;884425;-79
2020/12/06 06:34:55;;;;;;;28.57;20.27;;;5.90;99.90;;;;;;6159342;23;20458;-76
2020/12/06 06:37:27;;;;;;;28.07;18.80;;;5.90;99.90;;;;;;6168984;23;20391;-80
2020/12/06 06:39:58;;;;;;;32.93;19.53;;;5.90;99.90;;;;;;6159503;23;20370;-78
2020/12/06 06:42:27;;;;;;;27.80;18.37;;;5.90;99.90;;;;;;6159415;23;20379;-76
2020/12/06 06:45:08;;;;;;;33.00;21.30;;;5.90;99.90;;;;;;6159529;22;20371;-76
2020/12/06 06:47:40;;;;;;;26.90;18.60;;;5.90;99.90;;;;;;6159479;23;20677;-76
2020/12/06 06:50:08;;;;;;;34.50;19.70;;;5.90;99.90;;;;;;6159489;23;20420;-76
2020/12/06 06:52:34;;;;;;;30.47;18.40;;;5.90;99.90;;;;;;6158953;23;20520;-75
2020/12/06 06:55:00;;;;;;;29.50;19.87;;;5.90;99.90;;;;;;6159345;23;20386;-77
2020/12/06 06:57:30;;;;;;;33.53;20.37;;;5.90;99.90;;;;;;6168890;23;20402;-79
2020/12/06 06:59:57;;;;;;;28.27;19.30;;;6.00;99.90;;;;;;6159037;23;20170;-75
2020/12/06 07:02:41;;;;;;;28.93;19.67;;;6.00;99.90;;;;;;6153259;23;20427;-72
2020/12/06 07:05:27;;;;;;;33.00;20.70;;;6.00;99.90;;;;;;6123150;23;20410;-74
2020/12/06 07:07:54;;;;;;;31.63;20.13;;;5.90;99.90;;;;;;6122882;23;20402;-72
2020/12/06 07:10:21;;;;;;;34.60;19.27;;;5.90;99.90;;;;;;6123448;23;20392;-72
2020/12/06 07:12:51;;;;;;;34.47;20.83;;;5.90;99.90;;;;;;6122867;23;20443;-72
2020/12/06 07:15:19;;;;;;;28.83;20.40;;;5.90;99.90;;;;;;6123282;23;20383;-74
2020/12/06 07:17:45;;;;;;;35.77;21.67;;;5.90;99.90;;;;;;6122692;23;20429;-72
2020/12/06 07:20:14;;;;;;;35.63;20.60;;;5.90;99.90;;;;;;6123252;23;20492;-71
2020/12/06 07:22:40;;;;;;;29.60;19.90;;;5.90;99.90;;;;;;6123159;23;20400;-72
2020/12/06 07:25:07;;;;;;;30.27;18.83;;;5.90;99.90;;;;;;6132714;23;20389;-72
2020/12/06 07:27:33;;;;;;;29.37;19.60;;;5.90;99.90;;;;;;6132703;23;20405;-73
2020/12/06 07:30:00;;;;;;;33.90;20.50;;;5.90;99.90;;;;;;6132682;23;20404;-73
2020/12/06 07:32:25;;;;;;;29.50;18.13;;;5.90;99.90;;;;;;6121798;23;20196;-73
2020/12/06 07:34:51;;;;;;;33.93;20.77;;;5.80;99.90;;;;;;6122829;23;20376;-73
2020/12/06 07:37:17;;;;;;;29.10;19.60;;;5.80;99.90;;;;;;6123136;23;20221;-73
2020/12/06 07:39:44;;;;;;;30.27;19.87;;;5.80;99.90;;;;;;6123312;23;20202;-74
2020/12/06 07:42:10;;;;;;;29.37;19.57;;;5.90;99.90;;;;;;6123154;23;20137;-73
2020/12/06 07:44:47;;;;;;;35.07;20.43;;;5.90;99.90;;;;;;6132569;23;20391;-74
2020/12/06 07:47:12;;;;;;;27.13;19.17;;;5.90;99.90;;;;;;6123149;23;20402;-72
2020/12/06 07:49:49;;;;;;;29.17;19.93;;;5.90;99.90;;;;;;6123162;23;20851;-74
2020/12/06 07:52:16;;;;;;;32.17;19.93;;;5.90;99.90;;;;;;6122940;23;20191;-71
2020/12/06 07:55:11;;;;;;;28.47;19.37;;;6.00;99.90;;;;;;6123050;23;20396;-71
2020/12/06 07:57:54;;;;;;;27.83;18.27;;;5.90;99.90;;;;;;6122545;23;20399;-70
2020/12/06 08:00:37;;;;;;;30.37;20.47;;;5.90;99.90;;;;;;6123009;23;20384;-71
2020/12/06 08:03:04;;;;;;;24.27;18.03;;;5.90;99.90;;;;;;6121080;23;20451;-70
2020/12/06 08:05:36;;;;;;;37.23;24.10;;;5.90;99.90;;;;;;6122374;23;20862;-72
2020/12/06 08:08:05;;;;;;;28.73;19.97;;;6.10;99.90;;;;;;6123089;23;20385;-70
2020/12/06 08:10:33;;;;;;;28.60;20.30;;;6.10;99.90;;;;;;6122540;23;20414;-71
2020/12/06 08:12:59;;;;;;;33.13;20.83;;;6.00;99.90;;;;;;6132520;23;20432;-71
2020/12/06 08:15:26;;;;;;;28.30;20.23;;;6.00;99.90;;;;;;6121981;23;20482;-70
2020/12/06 08:17:53;;;;;;;30.37;20.87;;;5.90;99.90;;;;;;6122972;23;20818;-69
2020/12/06 08:20:20;;;;;;;41.53;21.70;;;5.90;99.90;;;;;;6122976;23;20397;-71
2020/12/06 08:22:46;;;;;;;36.67;22.00;;;5.90;99.90;;;;;;6122683;23;20439;-72
2020/12/06 08:25:11;;;;;;;35.53;21.03;;;5.90;99.90;;;;;;6122564;23;20385;-71
2020/12/06 08:27:42;;;;;;;31.10;21.43;;;6.00;99.90;;;;;;6122638;23;20171;-69
2020/12/06 08:30:16;;;;;;;32.07;21.17;;;6.00;99.90;;;;;;6122683;23;20141;-69
2020/12/06 08:33:15;;;;;;;32.63;20.77;;;6.00;99.90;;;;;;6122847;23;20436;-70
2020/12/06 08:35:47;;;;;;;31.37;19.90;;;6.00;99.90;;;;;;6124237;23;20393;-70
2020/12/06 08:38:34;;;;;;;32.60;20.37;;;6.10;99.90;;;;;;6121899;23;20677;-70
2020/12/06 08:41:03;;;;;;;36.60;22.60;;;6.10;99.90;;;;;;6121856;23;20746;-70
2020/12/06 08:43:45;;;;;;;39.80;25.17;;;6.10;99.90;;;;;;6121845;23;20408;-72
2020/12/06 08:46:13;;;;;;;32.30;21.80;;;6.10;99.90;;;;;;6121913;23;20397;-71
2020/12/06 08:48:39;;;;;;;37.43;23.70;;;6.20;99.90;;;;;;6121856;23;20393;-70
2020/12/06 08:51:04;;;;;;;32.57;20.10;;;6.20;99.90;;;;;;6121507;23;20882;-70
2020/12/06 08:53:43;;;;;;;30.20;19.70;;;6.20;99.90;;;;;;6119631;23;20433;-70
2020/12/06 08:56:33;;;;;;;33.40;23.17;;;6.20;99.90;;;;;;6120409;23;20440;-68
2020/12/06 08:59:15;;;;;;;28.97;20.67;;;6.20;99.90;;;;;;6130421;23;20145;-69
2020/12/06 09:01:48;;;;;;;29.80;20.63;;;6.30;99.90;;;;;;6121225;23;20388;-69
2020/12/06 09:04:15;;;;;;;29.07;20.57;;;6.30;99.90;;;;;;6120973;23;20510;-68
2020/12/06 09:06:41;;;;;;;33.77;23.27;;;6.30;99.90;;;;;;6121174;23;20697;-68
2020/12/06 09:09:06;;;;;;;29.87;20.83;;;6.30;99.90;;;;;;6130740;23;20449;-68
2020/12/06 09:11:32;;;;;;;29.03;20.10;;;6.30;99.90;;;;;;6120908;23;20217;-68
2020/12/06 09:13:58;;;;;;;29.13;18.70;;;6.30;99.90;;;;;;6121486;23;20156;-68
2020/12/06 09:16:23;;;;;;;29.67;19.80;;;6.30;99.90;;;;;;6121743;23;20569;-69
2020/12/06 09:18:49;;;;;;;39.43;21.17;;;6.30;99.90;;;;;;6120267;23;20149;-69
2020/12/06 09:21:14;;;;;;;30.57;20.60;;;6.30;99.90;;;;;;6121997;23;20146;-69
2020/12/06 09:23:40;;;;;;;30.47;17.63;;;6.30;99.90;;;;;;6121377;23;20161;-69
2020/12/06 09:26:06;;;;;;;28.47;21.20;;;6.30;99.90;;;;;;6121057;23;20153;-75
2020/12/06 09:28:33;;;;;;;33.88;24.52;;;6.40;99.90;;;;;;6119923;23;20811;-69
2020/12/06 09:30:58;;;;;;;34.67;22.80;;;6.50;99.90;;;;;;6121490;23;20149;-71
2020/12/06 09:33:25;;;;;;;32.93;22.57;;;6.60;99.90;;;;;;6121487;23;20443;-71
2020/12/06 09:35:51;;;;;;;28.13;20.87;;;6.60;99.90;;;;;;6120951;23;20169;-70
2020/12/06 09:38:17;;;;;;;26.60;19.03;;;6.60;99.90;;;;;;6121396;23;20381;-70
2020/12/06 09:40:43;;;;;;;34.33;22.83;;;6.60;99.90;;;;;;6121571;23;20146;-70
2020/12/06 09:43:10;;;;;;;32.43;21.33;;;6.60;99.90;;;;;;6121493;23;20463;-69
2020/12/06 09:45:36;;;;;;;31.30;20.20;;;6.60;99.90;;;;;;6131318;23;20216;-70
2020/12/06 09:48:02;;;;;;;32.67;22.63;;;6.60;99.90;;;;;;6121150;23;20498;-70
2020/12/06 09:50:27;;;;;;;38.83;22.83;;;6.60;99.90;;;;;;6130892;23;20152;-70
2020/12/06 09:52:53;;;;;;;31.77;20.33;;;6.60;99.90;;;;;;6121193;23;20260;-70
2020/12/06 09:55:18;;;;;;;33.17;22.27;;;6.60;99.90;;;;;;6121026;23;20203;-70
2020/12/06 09:57:44;;;;;;;34.10;21.23;;;6.60;99.90;;;;;;6121313;23;20164;-70
2020/12/06 10:00:10;;;;;;;40.70;23.10;;;6.60;99.90;;;;;;6121271;23;20441;-70
2020/12/06 10:02:35;;;;;;;32.20;20.73;;;6.60;99.90;;;;;;6121008;23;20511;-70
2020/12/06 10:05:01;;;;;;;34.20;21.80;;;6.60;99.90;;;;;;6121218;23;20177;-71
2020/12/06 10:07:27;;;;;;;39.40;23.63;;;6.60;99.90;;;;;;6121260;23;20157;-71
2020/12/06 10:09:53;;;;;;;33.80;22.93;;;6.60;99.90;;;;;;6130601;23;20149;-71
2020/12/06 10:12:19;;;;;;;30.43;21.67;;;6.60;99.90;;;;;;6121118;23;20930;-71
2020/12/06 10:14:44;;;;;;;32.97;22.40;;;6.60;99.90;;;;;;6121187;23;20152;-71
2020/12/06 10:17:10;;;;;;;36.83;23.83;;;6.60;99.90;;;;;;6120751;23;20153;-71
2020/12/06 10:19:36;;;;;;;38.10;23.20;;;6.60;99.90;;;;;;6130490;23;20175;-71
2020/12/06 10:22:01;;;;;;;34.73;22.90;;;6.60;99.90;;;;;;6130694;23;20206;-71
2020/12/06 10:24:27;;;;;;;33.77;21.80;;;6.60;99.90;;;;;;6121111;23;20457;-71
2020/12/06 10:26:53;;;;;;;32.17;21.00;;;6.60;99.90;;;;;;6120940;23;20183;-71
2020/12/06 10:29:19;;;;;;;35.13;23.10;;;6.60;99.90;;;;;;6120714;23;20589;-71
2020/12/06 10:31:51;;;;;;;34.10;23.23;;;6.60;99.90;;;;;;6130294;23;20438;-71
2020/12/06 10:34:17;;;;;;;36.70;24.03;;;6.60;99.90;;;;;;6120686;23;20388;-71
2020/12/06 10:36:47;;;;;;;34.33;24.27;;;6.60;99.90;;;;;;6120954;23;20388;-71
2020/12/06 10:39:13;;;;;;;35.70;22.20;;;6.60;99.90;;;;;;6131400;23;20395;-71
2020/12/06 10:41:38;;;;;;;32.63;22.53;;;6.60;99.90;;;;;;6122316;23;20714;-71
2020/12/06 10:44:04;;;;;;;16.07;9.70;;;6.60;99.90;;;;;;6122303;23;20455;-76
2020/12/06 10:46:29;;;;;;;28.40;16.50;;;6.70;99.90;;;;;;6122167;23;20161;-75
2020/12/06 10:48:55;;;;;;;44.97;28.37;;;7.10;99.90;;;;;;6131837;23;20150;-76
2020/12/06 10:51:20;;;;;;;37.97;24.70;;;7.50;99.90;;;;;;6121891;23;20199;-74
2020/12/06 10:53:46;;;;;;;39.03;26.00;;;7.60;99.90;;;;;;6122250;23;20264;-70
2020/12/06 10:56:11;;;;;;;33.00;22.10;;;7.60;99.90;;;;;;6131752;23;20145;-71
2020/12/06 10:58:38;;;;;;;44.80;21.27;;;7.60;99.90;;;;;;6121924;23;20150;-72
2020/12/06 11:01:03;;;;;;;30.60;21.00;;;7.50;99.90;;;;;;6131655;23;20195;-71
2020/12/06 11:03:29;;;;;;;31.00;20.80;;;7.50;99.90;;;;;;6121558;23;20440;-70
2020/12/06 11:05:55;;;;;;;29.33;19.73;;;7.40;99.90;;;;;;6121638;23;20219;-69
2020/12/06 11:08:23;;;;;;;32.93;21.97;;;7.40;99.90;;;;;;6122798;23;20161;-70
2020/12/06 11:10:48;;;;;;;40.73;25.00;;;7.30;99.90;;;;;;6122979;23;20228;-70
2020/12/06 11:13:14;;;;;;;36.97;22.30;;;7.30;99.90;;;;;;6122898;23;20541;-70
2020/12/06 11:15:39;;;;;;;32.93;22.23;;;7.20;99.90;;;;;;6132705;23;20157;-69
2020/12/06 11:18:05;;;;;;;33.10;21.77;;;7.20;99.90;;;;;;6132720;23;20172;-70
2020/12/06 11:20:30;;;;;;;34.50;24.17;;;7.20;99.90;;;;;;6132747;23;20157;-69
2020/12/06 11:22:56;;;;;;;35.67;23.43;;;7.10;99.90;;;;;;6124106;23;20149;-69
2020/12/06 11:25:21;;;;;;;40.77;24.47;;;7.10;99.90;;;;;;6123581;23;20522;-68
2020/12/06 11:27:47;;;;;;;36.87;25.30;;;7.10;99.90;;;;;;6132846;23;20148;-69
2020/12/06 11:30:12;;;;;;;38.87;25.57;;;7.10;99.90;;;;;;6121447;23;20157;-69
2020/12/06 11:32:38;;;;;;;39.23;25.00;;;7.10;99.90;;;;;;6132341;23;20191;-69
2020/12/06 11:35:04;;;;;;;38.80;26.20;;;7.10;99.90;;;;;;6122946;23;20486;-69
2020/12/06 11:37:29;;;;;;;33.90;22.10;;;7.10;99.90;;;;;;6122553;23;20239;-68
2020/12/06 11:39:55;;;;;;;36.27;23.30;;;7.10;99.90;;;;;;6132183;23;20165;-68
2020/12/06 11:42:20;;;;;;;36.17;24.60;;;7.10;99.90;;;;;;6122602;23;20157;-68
2020/12/06 11:44:46;;;;;;;39.90;25.80;;;7.10;99.90;;;;;;6122894;23;20146;-68
2020/12/06 11:47:12;;;;;;;37.50;24.50;;;7.00;99.90;;;;;;6122476;23;20158;-68
2020/12/06 11:49:37;;;;;;;36.00;23.50;;;7.00;99.90;;;;;;6122728;23;20403;-69
2020/12/06 11:52:07;;;;;;;40.83;25.00;;;7.00;99.90;;;;;;6122766;23;20195;-68
2020/12/06 11:54:34;;;;;;;35.30;22.73;;;7.00;99.90;;;;;;6122815;23;20164;-68
2020/12/06 11:56:59;;;;;;;38.60;25.97;;;7.00;99.90;;;;;;6122866;23;20411;-69
2020/12/06 11:59:25;;;;;;;45.27;27.13;;;7.00;99.90;;;;;;6122849;23;20447;-69
2020/12/06 12:01:51;;;;;;;45.73;28.33;;;7.00;99.90;;;;;;6122398;23;20164;-69
2020/12/06 12:04:17;;;;;;;43.53;27.23;;;6.90;99.90;;;;;;6122248;23;20203;-69
2020/12/06 12:06:43;;;;;;;42.50;26.10;;;6.90;99.90;;;;;;6122722;23;20935;-69
2020/12/06 12:09:08;;;;;;;39.10;26.87;;;6.90;99.90;;;;;;6121207;23;20184;-69
2020/12/06 12:11:34;;;;;;;38.87;24.10;;;7.00;99.90;;;;;;6122377;23;20212;-69
2020/12/06 12:13:59;;;;;;;45.70;26.80;;;6.90;99.90;;;;;;6122711;23;20157;-69
2020/12/06 12:16:25;;;;;;;39.30;24.50;;;6.90;99.90;;;;;;6122580;23;20141;-69
2020/12/06 12:18:51;;;;;;;39.33;24.93;;;6.90;99.90;;;;;;6121996;23;20163;-69
2020/12/06 12:21:16;;;;;;;36.00;23.97;;;6.90;99.90;;;;;;6131995;23;20145;-69
2020/12/06 12:23:42;;;;;;;40.60;24.83;;;6.90;99.90;;;;;;6121959;23;20152;-69
2020/12/06 12:26:07;;;;;;;39.50;25.27;;;6.90;99.90;;;;;;6122450;23;20157;-69
2020/12/06 12:28:33;;;;;;;35.57;24.07;;;6.90;99.90;;;;;;6131971;23;20160;-69
2020/12/06 12:30:58;;;;;;;37.23;23.70;;;6.90;99.90;;;;;;6122429;23;20515;-69
2020/12/06 12:33:24;;;;;;;39.37;23.50;;;6.90;99.90;;;;;;6122442;23;20184;-70
2020/12/06 12:35:49;;;;;;;41.23;23.07;;;6.90;99.90;;;;;;6122850;23;20629;-71
2020/12/06 12:38:15;;;;;;;34.10;24.03;;;6.90;99.90;;;;;;6122466;23;20176;-70
2020/12/06 12:40:41;;;;;;;37.60;25.20;;;6.90;99.90;;;;;;6132168;23;20198;-70
2020/12/06 12:43:06;;;;;;;42.00;27.13;;;6.90;99.90;;;;;;6132239;23;20547;-70
2020/12/06 12:45:32;;;;;;;45.30;26.73;;;6.90;99.90;;;;;;6132270;23;20209;-70
2020/12/06 12:47:57;;;;;;;41.20;25.60;;;6.90;99.90;;;;;;6132302;23;20226;-70
2020/12/06 12:50:23;;;;;;;45.07;27.70;;;6.90;99.90;;;;;;6122845;23;20181;-70
2020/12/06 12:52:49;;;;;;;43.07;28.03;;;6.90;99.90;;;;;;6122422;23;20235;-70
2020/12/06 12:55:16;;;;;;;44.73;27.53;;;6.90;99.90;;;;;;6122525;23;20203;-70
2020/12/06 12:57:42;;;;;;;49.20;28.67;;;6.90;99.90;;;;;;6122246;23;20175;-69
2020/12/06 13:00:08;;;;;;;51.10;29.97;;;6.90;99.90;;;;;;6121647;23;20398;-69
2020/12/06 13:02:34;;;;;;;53.50;28.73;;;6.90;99.90;;;;;;6120888;23;20407;-70
2020/12/06 13:05:00;;;;;;;53.50;30.63;;;6.90;99.90;;;;;;6121313;23;20153;-70
2020/12/06 13:07:26;;;;;;;49.00;30.13;;;6.90;99.90;;;;;;6121683;23;20777;-70
2020/12/06 13:09:51;;;;;;;48.60;29.47;;;6.90;99.90;;;;;;6121726;23;20416;-70
2020/12/06 13:12:17;;;;;;;55.53;31.83;;;6.90;99.90;;;;;;6130897;23;20190;-70
2020/12/06 13:14:43;;;;;;;55.90;30.73;;;6.90;99.90;;;;;;6121114;23;20161;-69
2020/12/06 13:17:08;;;;;;;50.83;26.53;;;7.00;99.90;;;;;;6130779;23;20150;-71
2020/12/06 13:19:34;;;;;;;40.07;25.80;;;7.00;99.90;;;;;;6121022;23;20149;-70
2020/12/06 13:22:00;;;;;;;43.07;26.10;;;7.00;99.90;;;;;;6121372;23;20159;-71
2020/12/06 13:24:25;;;;;;;48.77;28.97;;;6.90;99.90;;;;;;6121224;23;20164;-70
2020/12/06 13:26:54;;;;;;;44.07;27.60;;;6.90;99.90;;;;;;6121306;23;20713;-70
2020/12/06 13:29:20;;;;;;;47.43;26.53;;;6.90;99.90;;;;;;6121431;23;20608;-70
2020/12/06 13:31:49;;;;;;;51.27;28.33;;;6.90;99.90;;;;;;6121208;23;20507;-70
2020/12/06 13:34:14;;;;;;;49.70;27.80;;;6.90;99.90;;;;;;6121078;23;20477;-71
2020/12/06 13:36:40;;;;;;;50.30;30.33;;;6.90;99.90;;;;;;6130843;23;20381;-71
2020/12/06 13:39:05;;;;;;;50.07;29.07;;;6.90;99.90;;;;;;6126494;23;20161;-71
2020/12/06 13:41:31;;;;;;;48.27;28.47;;;6.90;99.90;;;;;;6129992;23;20163;-72
2020/12/06 13:43:56;;;;;;;56.10;31.17;;;6.90;99.90;;;;;;6129059;23;20157;-72
2020/12/06 13:46:22;;;;;;;54.90;29.90;;;6.90;99.90;;;;;;6121209;23;20645;-71
2020/12/06 13:48:49;;;;;;;51.40;26.50;;;6.90;99.90;;;;;;6130221;23;20488;-72
2020/12/06 13:51:14;;;;;;;43.27;25.80;;;6.90;99.90;;;;;;6122048;23;20377;-70
2020/12/06 13:53:40;;;;;;;43.40;25.40;;;6.90;99.90;;;;;;6120351;23;20766;-70
2020/12/06 13:56:05;;;;;;;41.30;25.47;;;6.90;99.90;;;;;;6120358;23;20235;-71
2020/12/06 13:58:31;;;;;;;33.47;22.90;;;6.90;99.90;;;;;;6129467;23;20149;-70
2020/12/06 14:00:56;;;;;;;40.43;24.90;;;6.90;99.90;;;;;;6131414;23;20573;-70
2020/12/06 14:03:22;;;;;;;36.03;22.80;;;6.90;99.90;;;;;;6121057;23;20283;-70
2020/12/06 14:05:48;;;;;;;36.63;22.73;;;6.90;99.90;;;;;;6121744;23;20155;-70
2020/12/06 14:08:13;;;;;;;38.70;23.23;;;6.90;99.90;;;;;;6121385;23;20164;-71
2020/12/06 14:10:39;;;;;;;42.03;24.27;;;6.90;99.90;;;;;;6120216;23;20173;-68
2020/12/06 14:13:05;;;;;;;37.10;22.87;;;6.90;99.90;;;;;;6122067;23;20737;-70
2020/12/06 14:15:30;;;;;;;40.60;25.87;;;6.90;99.90;;;;;;6123154;23;20509;-75
2020/12/06 14:17:56;;;;;;;39.40;24.17;;;6.90;99.90;;;;;;6122305;23;20215;-68
2020/12/06 14:23:04;;;;;;;42.70;26.20;;;7.10;99.90;;;;;;5090932;27;20578;-73
2020/12/06 14:25:29;;;;;;;37.80;23.43;;;7.30;99.90;;;;;;5091063;28;20416;-73
2020/12/06 14:27:58;;;;;;;37.00;24.40;;;7.20;99.90;;;;;;5090915;28;20268;-72
2020/12/06 14:30:23;;;;;;;41.93;24.97;;;7.20;99.90;;;;;;5091938;28;20169;-73
2020/12/06 14:32:49;;;;;;;39.83;24.77;;;7.10;99.90;;;;;;5110903;28;20325;-73
2020/12/06 14:35:15;;;;;;;39.60;28.35;;;7.10;99.90;;;;;;5109962;28;20555;-74
2020/12/06 14:37:41;;;;;;;39.43;25.30;;;7.10;99.90;;;;;;5110853;28;20200;-74